Time;durP1;ratioP1;P1;durP2;ratioP2;P2;SDS_P1;SDS_P2;PMS_P1;PMS_P2;Temp;Humidity;BMP_temperature;BMP_pressure;BME280_temperature;BME280_humidity;BME280_pressure;Samples;Min_cycle;Max_cycle;Signal;HPM_P1;HPM_P2
2021/06/14 00:18:32;;;;;;;13.37;7.50;;;12.30;97.30;;;;;;5245948;23;20614;-92
2021/06/14 00:21:01;;;;;;;12.80;7.83;;;12.30;97.30;;;;;;4922997;29;20462;-91
2021/06/14 00:23:29;;;;;;;16.70;8.50;;;12.20;97.30;;;;;;4940052;29;20439;-92
2021/06/14 00:25:55;;;;;;;9.93;6.60;;;12.20;97.30;;;;;;4923082;29;20829;-91
2021/06/14 00:28:20;;;;;;;11.50;7.43;;;12.20;97.30;;;;;;4923540;29;20523;-92
2021/06/14 00:30:48;;;;;;;14.33;7.90;;;12.20;97.30;;;;;;4923623;29;20443;-92
2021/06/14 00:33:15;;;;;;;11.30;6.77;;;12.10;97.30;;;;;;4923579;29;20203;-91
2021/06/14 00:35:44;;;;;;;15.20;7.60;;;12.10;97.30;;;;;;4923704;29;20430;-91
2021/06/14 00:38:10;;;;;;;13.07;7.43;;;12.00;97.30;;;;;;4923873;29;20503;-92
2021/06/14 00:40:36;;;;;;;12.83;7.60;;;12.00;97.30;;;;;;4923340;29;20439;-91
2021/06/14 00:43:03;;;;;;;11.93;8.63;;;11.90;97.30;;;;;;4924216;29;20184;-92
2021/06/14 00:45:31;;;;;;;17.93;8.23;;;11.90;97.30;;;;;;4924924;29;20428;-92
2021/06/14 00:47:58;;;;;;;18.50;9.40;;;11.80;97.30;;;;;;4924726;29;21070;-91
2021/06/14 00:50:39;;;;;;;13.30;8.40;;;11.80;97.30;;;;;;4924458;29;20440;-91
2021/06/14 00:53:06;;;;;;;14.27;8.87;;;11.80;97.30;;;;;;4923740;29;20466;-92
2021/06/14 00:55:31;;;;;;;15.13;8.57;;;11.70;97.30;;;;;;4924094;29;20416;-92
2021/06/14 00:57:57;;;;;;;15.20;8.80;;;11.70;97.30;;;;;;4940255;29;20502;-91
2021/06/14 01:00:23;;;;;;;15.07;7.87;;;11.60;97.30;;;;;;4923393;29;20220;-91
2021/06/14 01:02:48;;;;;;;14.80;8.50;;;11.60;97.30;;;;;;4920538;29;20188;-91
2021/06/14 01:05:15;;;;;;;14.70;7.43;;;11.60;97.30;;;;;;4920350;29;20191;-91
2021/06/14 01:07:40;;;;;;;14.03;7.40;;;11.60;97.30;;;;;;4920538;29;20191;-91
2021/06/14 01:10:07;;;;;;;12.00;6.97;;;11.60;97.30;;;;;;4920209;29;20443;-91
2021/06/14 01:12:37;;;;;;;8.43;6.57;;;11.70;97.30;;;;;;4920742;29;20214;-91
2021/06/14 01:15:11;;;;;;;11.10;7.17;;;11.70;97.30;;;;;;4920673;29;20454;-91
2021/06/14 01:17:42;;;;;;;11.10;7.23;;;11.60;97.30;;;;;;4920522;29;20483;-92
2021/06/14 01:20:14;;;;;;;18.20;9.23;;;11.60;97.30;;;;;;4921017;29;20450;-92
2021/06/14 01:23:12;;;;;;;12.63;7.20;;;11.60;97.30;;;;;;4921892;29;20451;-91
2021/06/14 01:25:52;;;;;;;12.93;6.87;;;11.50;97.30;;;;;;4938863;29;20424;-92
2021/06/14 01:28:20;;;;;;;17.73;7.60;;;11.50;97.30;;;;;;4921665;29;20418;-91
2021/06/14 01:30:46;;;;;;;12.20;7.37;;;11.40;97.30;;;;;;4920904;29;20435;-91
2021/06/14 01:33:14;;;;;;;12.20;7.33;;;11.40;97.30;;;;;;4921124;29;20474;-92
2021/06/14 01:35:46;;;;;;;13.20;7.83;;;11.40;97.30;;;;;;4921745;29;20455;-91
2021/06/14 01:38:13;;;;;;;14.63;7.33;;;11.40;97.30;;;;;;4922341;29;20416;-91
2021/06/14 01:40:40;;;;;;;15.70;7.90;;;11.30;97.30;;;;;;4939959;29;20432;-92
2021/06/14 01:43:09;;;;;;;9.30;6.63;;;11.30;97.30;;;;;;4922572;29;20459;-91
2021/06/14 01:45:39;;;;;;;16.63;7.57;;;11.40;97.30;;;;;;4922574;29;21072;-91
2021/06/14 01:48:06;;;;;;;11.30;7.27;;;11.40;97.30;;;;;;4922111;29;20911;-91
2021/06/14 01:50:32;;;;;;;18.17;7.43;;;11.30;97.30;;;;;;4939073;29;21022;-92
2021/06/14 01:52:58;;;;;;;12.63;7.60;;;11.30;97.30;;;;;;4921958;29;20479;-91
2021/06/14 01:55:24;;;;;;;15.10;8.20;;;11.30;97.30;;;;;;4921796;29;20180;-91
2021/06/14 01:57:53;;;;;;;13.77;7.73;;;11.30;97.30;;;;;;4921753;29;20423;-91
2021/06/14 02:00:21;;;;;;;13.53;7.97;;;11.20;97.30;;;;;;4928850;29;20482;-92
2021/06/14 02:02:49;;;;;;;12.20;7.30;;;11.20;97.30;;;;;;4942931;28;20432;-93
2021/06/14 02:05:17;;;;;;;13.13;7.30;;;11.20;97.30;;;;;;4923470;29;20481;-92
2021/06/14 02:07:43;;;;;;;14.70;7.93;;;11.20;97.30;;;;;;4920296;29;20519;-92
2021/06/14 02:10:10;;;;;;;13.90;9.00;;;11.10;97.30;;;;;;4936749;29;20495;-91
2021/06/14 02:12:42;;;;;;;14.70;7.80;;;11.10;97.30;;;;;;4919877;29;20640;-91
2021/06/14 02:15:09;;;;;;;14.10;6.90;;;11.10;97.30;;;;;;4919855;29;20779;-92
2021/06/14 02:17:39;;;;;;;12.23;7.80;;;11.10;97.30;;;;;;4920278;29;20514;-92
2021/06/14 02:20:06;;;;;;;15.70;7.20;;;11.00;97.30;;;;;;4937625;29;20443;-92
2021/06/14 02:22:33;;;;;;;9.60;6.87;;;11.00;97.30;;;;;;4921033;29;20420;-92
2021/06/14 02:25:00;;;;;;;12.23;6.70;;;11.00;97.30;;;;;;4921121;29;20442;-91
2021/06/14 02:27:26;;;;;;;14.33;7.43;;;11.00;97.30;;;;;;4920496;29;20420;-92
2021/06/14 02:29:51;;;;;;;12.80;7.70;;;11.00;97.30;;;;;;4920895;29;20494;-91
2021/06/14 02:32:17;;;;;;;12.57;7.97;;;11.00;97.30;;;;;;4938089;29;20548;-91
2021/06/14 02:34:44;;;;;;;14.70;7.17;;;10.90;97.30;;;;;;4921310;29;20180;-92
2021/06/14 02:37:11;;;;;;;12.70;7.27;;;10.90;97.30;;;;;;4922627;29;20183;-91
2021/06/14 02:39:37;;;;;;;13.87;7.80;;;10.90;97.30;;;;;;4922006;29;20934;-92
2021/06/14 02:42:04;;;;;;;13.07;7.40;;;10.90;97.30;;;;;;4921826;29;20424;-91
2021/06/14 02:44:31;;;;;;;17.43;8.10;;;10.80;97.30;;;;;;4921916;29;20428;-91
2021/06/14 02:47:05;;;;;;;13.60;7.67;;;10.80;97.30;;;;;;4939112;29;20423;-92
2021/06/14 02:49:31;;;;;;;11.37;6.53;;;10.80;97.30;;;;;;4920315;29;20411;-91
2021/06/14 02:52:00;;;;;;;10.77;6.43;;;10.80;97.30;;;;;;4921267;29;20460;-92
2021/06/14 02:54:31;;;;;;;9.70;7.50;;;10.80;97.30;;;;;;4919966;29;20432;-92
2021/06/14 02:57:01;;;;;;;8.27;6.40;;;10.80;97.30;;;;;;4937379;29;20946;-91
2021/06/14 02:59:28;;;;;;;13.50;7.23;;;10.80;97.30;;;;;;4915618;29;20956;-92
2021/06/14 03:01:55;;;;;;;16.93;5.87;;;10.80;97.30;;;;;;4905583;29;20435;-92
2021/06/14 03:04:22;;;;;;;11.60;7.57;;;10.80;97.30;;;;;;4920495;29;20427;-91
2021/06/14 03:06:51;;;;;;;10.13;6.60;;;10.80;97.30;;;;;;4919648;29;20426;-91
2021/06/14 03:09:17;;;;;;;8.20;6.03;;;10.70;97.30;;;;;;4920025;29;20424;-91
2021/06/14 03:11:45;;;;;;;9.50;7.00;;;10.70;97.30;;;;;;4940967;23;20485;-90
2021/06/14 03:14:15;;;;;;;8.53;6.63;;;10.70;97.30;;;;;;4899963;29;20409;-90
2021/06/14 03:16:43;;;;;;;20.40;7.33;;;10.70;97.30;;;;;;4901161;29;20416;-90
2021/06/14 03:19:09;;;;;;;14.13;7.90;;;10.70;97.30;;;;;;4900482;29;20408;-90
2021/06/14 03:21:36;;;;;;;12.37;7.63;;;10.70;97.30;;;;;;4902145;29;20436;-91
2021/06/14 03:24:02;;;;;;;15.33;7.03;;;10.70;97.30;;;;;;4920156;29;20416;-90
2021/06/14 03:27:22;;;;;;;11.03;6.93;;;10.70;97.30;;;;;;4921988;29;20440;-90
2021/06/14 03:40:04;;;;;;;12.27;7.97;;;10.70;97.30;;;;;;4989346;23;20564;-90
2021/06/14 03:42:32;;;;;;;12.90;7.40;;;10.70;97.30;;;;;;4923236;29;20420;-90
2021/06/14 03:44:58;;;;;;;15.60;8.57;;;10.80;97.30;;;;;;4921383;29;20416;-91
2021/06/14 03:47:24;;;;;;;12.50;7.23;;;10.80;97.30;;;;;;4921610;29;20840;-91
2021/06/14 03:49:51;;;;;;;12.87;8.53;;;10.80;97.30;;;;;;4921254;29;20777;-89
2021/06/14 03:52:17;;;;;;;15.37;7.90;;;10.80;97.30;;;;;;4923111;29;20530;-91
2021/06/14 03:54:42;;;;;;;11.33;7.53;;;10.80;97.30;;;;;;4922583;29;20419;-91
2021/06/14 03:57:08;;;;;;;13.37;9.03;;;10.90;97.30;;;;;;4922976;29;20200;-91
2021/06/14 03:59:34;;;;;;;15.10;8.90;;;10.90;97.30;;;;;;4923127;29;20577;-91
2021/06/14 04:01:59;;;;;;;18.20;8.73;;;10.90;97.30;;;;;;4922432;29;20204;-91
2021/06/14 04:07:01;;;;;;;14.80;9.07;;;10.90;97.30;;;;;;4941671;29;20187;-91
2021/06/14 04:09:29;;;;;;;13.57;8.33;;;11.00;97.30;;;;;;4923371;29;20470;-91
2021/06/14 04:12:02;;;;;;;12.70;8.50;;;11.10;97.30;;;;;;4939941;29;20459;-91
2021/06/14 04:14:28;;;;;;;14.23;8.40;;;11.10;97.30;;;;;;4923285;29;20420;-91
2021/06/14 04:16:53;;;;;;;13.67;8.40;;;11.20;97.30;;;;;;4923649;29;20965;-91
2021/06/14 04:19:21;;;;;;;15.63;8.67;;;11.20;97.30;;;;;;4923909;29;20204;-90
2021/06/14 04:21:46;;;;;;;17.30;9.00;;;11.20;97.30;;;;;;4924280;29;20199;-91
2021/06/14 04:24:12;;;;;;;18.40;9.90;;;11.30;97.30;;;;;;4924367;29;20624;-90
2021/06/14 04:26:40;;;;;;;14.77;9.80;;;11.30;97.30;;;;;;4924806;29;20184;-90
2021/06/14 04:29:08;;;;;;;13.50;8.70;;;11.40;97.30;;;;;;4924574;29;20180;-91
2021/06/14 04:31:33;;;;;;;16.47;9.47;;;11.40;97.30;;;;;;4924555;29;20440;-90
2021/06/14 04:35:13;;;;;;;14.80;9.33;;;11.50;97.30;;;;;;4940865;29;20519;-90
2021/06/14 04:38:33;;;;;;;;;;;;;;;;;;;;;
2021/06/14 04:54:58;;;;;;;20.87;11.43;;;12.00;97.30;;;;;;4918327;29;20481;-90
2021/06/14 04:57:24;;;;;;;22.50;12.43;;;12.00;97.30;;;;;;4903736;29;20429;-90
2021/06/14 04:59:51;;;;;;;22.50;10.93;;;12.10;97.30;;;;;;4903709;29;20199;-90
2021/06/14 05:02:22;;;;;;;22.10;13.27;;;12.20;97.30;;;;;;4901139;29;20419;-89
2021/06/14 05:04:49;;;;;;;24.83;12.90;;;12.30;97.30;;;;;;4903801;29;20472;-90
2021/06/14 05:07:20;;;;;;;27.53;13.57;;;12.30;97.30;;;;;;4908491;29;20417;-90
2021/06/14 05:09:45;;;;;;;22.70;13.00;;;12.40;97.30;;;;;;4903257;29;20524;-90
2021/06/14 05:12:11;;;;;;;23.17;14.03;;;12.40;97.30;;;;;;4923735;23;20972;-77
2021/06/14 05:14:36;;;;;;;25.30;13.17;;;12.50;97.30;;;;;;4918058;29;20179;-77
2021/06/14 05:17:02;;;;;;;23.40;12.13;;;12.50;97.30;;;;;;4918362;29;20187;-77
2021/06/14 05:19:28;;;;;;;23.47;13.27;;;12.60;97.30;;;;;;4917531;29;20191;-78
2021/06/14 05:21:54;;;;;;;21.43;13.27;;;12.60;97.30;;;;;;4917478;29;20438;-77
2021/06/14 05:24:20;;;;;;;26.63;13.10;;;12.70;97.30;;;;;;4917799;29;20176;-77
2021/06/14 05:26:46;;;;;;;21.60;12.83;;;12.80;97.30;;;;;;4917932;29;20430;-77
2021/06/14 05:29:11;;;;;;;24.27;13.47;;;12.90;97.30;;;;;;4917119;29;20179;-77
2021/06/14 05:31:38;;;;;;;35.50;13.37;;;12.90;97.30;;;;;;4916950;29;20192;-76
2021/06/14 05:34:04;;;;;;;27.87;12.13;;;13.00;97.30;;;;;;4917984;29;20183;-77
2021/06/14 05:36:30;;;;;;;20.60;12.77;;;13.10;97.30;;;;;;4917810;29;20412;-77
2021/06/14 05:38:55;;;;;;;25.90;13.37;;;13.20;97.30;;;;;;4934273;29;20255;-77
2021/06/14 05:41:21;;;;;;;26.70;13.73;;;13.30;97.30;;;;;;4917096;29;20195;-77
2021/06/14 05:43:46;;;;;;;22.10;12.80;;;13.40;97.30;;;;;;4933873;29;20251;-77
2021/06/14 05:46:12;;;;;;;21.97;12.67;;;13.40;97.30;;;;;;4917070;29;20208;-78
2021/06/14 05:48:38;;;;;;;21.50;12.20;;;13.50;97.30;;;;;;4917326;29;20706;-77
2021/06/14 05:51:03;;;;;;;22.40;11.43;;;13.60;97.30;;;;;;4917086;29;20212;-77
2021/06/14 05:53:31;;;;;;;23.67;12.10;;;13.70;97.30;;;;;;4933645;29;20211;-77
2021/06/14 05:55:57;;;;;;;19.80;12.10;;;13.80;97.30;;;;;;4934021;29;20171;-77
2021/06/14 05:58:22;;;;;;;21.23;12.90;;;13.90;97.30;;;;;;4917754;29;20428;-77
2021/06/14 06:00:48;;;;;;;23.13;11.30;;;13.90;97.30;;;;;;4916653;29;20234;-77
2021/06/14 06:03:13;;;;;;;22.60;11.03;;;14.00;97.30;;;;;;4916782;29;20283;-77
2021/06/14 06:05:39;;;;;;;21.17;11.70;;;14.10;97.30;;;;;;4917034;29;20220;-77
2021/06/14 06:08:05;;;;;;;21.33;10.60;;;14.20;97.30;;;;;;4916844;29;20184;-78
2021/06/14 06:10:30;;;;;;;27.13;11.83;;;14.20;97.30;;;;;;4916336;29;20275;-77
2021/06/14 06:12:56;;;;;;;22.10;11.00;;;14.30;97.30;;;;;;4915968;29;20222;-78
2021/06/14 06:15:22;;;;;;;19.47;9.37;;;14.40;97.30;;;;;;4916770;29;20176;-77
2021/06/14 06:17:48;;;;;;;18.50;10.00;;;14.50;97.30;;;;;;4932823;29;20204;-77
2021/06/14 06:20:15;;;;;;;19.63;10.33;;;14.60;97.30;;;;;;4915559;29;20184;-77
2021/06/14 06:22:42;;;;;;;16.10;8.70;;;14.80;97.30;;;;;;4916265;29;20420;-77
2021/06/14 06:25:11;;;;;;;15.03;9.50;;;14.90;97.30;;;;;;4915937;29;20919;-77
2021/06/14 06:27:37;;;;;;;14.43;9.30;;;14.90;97.30;;;;;;4933291;29;20415;-79
2021/06/14 06:30:05;;;;;;;17.80;9.43;;;15.00;97.30;;;;;;4900749;29;20629;-77
2021/06/14 06:32:30;;;;;;;21.37;9.97;;;15.10;97.30;;;;;;4915801;29;20215;-77
2021/06/14 06:34:56;;;;;;;20.57;10.17;;;15.20;97.30;;;;;;4915338;29;20846;-77
2021/06/14 06:37:21;;;;;;;16.60;8.30;;;15.30;97.30;;;;;;4915511;29;20669;-77
2021/06/14 06:39:47;;;;;;;17.40;7.90;;;15.40;97.30;;;;;;4916317;29;20739;-77
2021/06/14 06:42:12;;;;;;;15.93;8.67;;;15.40;97.30;;;;;;4915461;29;20249;-77
2021/06/14 06:44:38;;;;;;;14.63;7.03;;;15.50;97.30;;;;;;4915727;29;20184;-77
2021/06/14 06:47:04;;;;;;;15.77;7.10;;;15.60;97.30;;;;;;4915991;29;20183;-77
2021/06/14 06:49:31;;;;;;;12.17;6.63;;;15.70;97.30;;;;;;4915880;29;20803;-77
2021/06/14 06:51:58;;;;;;;11.53;6.57;;;15.90;97.30;;;;;;4915001;29;20463;-77
2021/06/14 06:54:24;;;;;;;16.07;6.90;;;16.00;97.30;;;;;;4916061;29;20423;-77
2021/06/14 06:56:51;;;;;;;18.23;7.03;;;16.20;97.30;;;;;;4918043;29;20428;-77
2021/06/14 06:59:17;;;;;;;17.83;7.47;;;16.30;97.30;;;;;;4918548;29;20231;-77
2021/06/14 07:01:46;;;;;;;14.20;7.10;;;16.40;97.30;;;;;;4918722;29;20459;-77
2021/06/14 07:04:12;;;;;;;15.90;7.07;;;16.50;97.30;;;;;;4919198;29;20420;-76
2021/06/14 07:06:38;;;;;;;15.43;6.43;;;16.60;97.30;;;;;;4918547;29;20436;-77
2021/06/14 07:09:04;;;;;;;12.43;5.93;;;16.70;97.30;;;;;;4918467;29;20412;-77
2021/06/14 07:11:30;;;;;;;9.73;4.83;;;16.80;97.30;;;;;;4903769;29;85306;-78
2021/06/14 07:13:57;;;;;;;13.80;5.90;;;16.90;97.30;;;;;;4917370;29;20939;-77
2021/06/14 07:16:23;;;;;;;14.13;5.27;;;17.00;97.30;;;;;;4919391;29;20479;-77
2021/06/14 07:18:50;;;;;;;17.53;5.67;;;17.00;97.30;;;;;;4919540;29;20761;-77
2021/06/14 07:21:16;;;;;;;13.83;5.93;;;17.10;97.30;;;;;;4920098;29;20440;-77
2021/06/14 07:23:41;;;;;;;14.60;5.30;;;17.10;97.30;;;;;;4936965;29;20412;-77
2021/06/14 07:26:08;;;;;;;11.03;5.50;;;17.20;97.30;;;;;;4919530;29;20180;-77
2021/06/14 07:28:34;;;;;;;9.97;5.00;;;17.20;97.30;;;;;;4920054;29;20222;-77
2021/06/14 07:31:01;;;;;;;10.80;5.27;;;17.30;97.30;;;;;;4919420;29;20534;-77
2021/06/14 07:33:26;;;;;;;10.17;5.30;;;17.30;97.30;;;;;;4919255;29;21010;-77
2021/06/14 07:35:52;;;;;;;9.97;5.00;;;17.40;97.30;;;;;;4919536;29;20447;-77
2021/06/14 07:38:18;;;;;;;11.20;6.63;;;17.50;96.00;;;;;;4919645;29;20528;-76
2021/06/14 07:40:44;;;;;;;13.40;6.10;;;17.60;97.00;;;;;;4918977;29;20247;-77
2021/06/14 07:43:12;;;;;;;12.57;6.17;;;17.80;97.00;;;;;;4919284;29;20791;-77
2021/06/14 07:45:42;;;;;;;9.23;5.40;;;17.90;95.20;;;;;;4936544;29;20411;-77
2021/06/14 07:48:09;;;;;;;10.40;5.70;;;18.00;95.20;;;;;;4919394;29;20424;-77
2021/06/14 07:50:36;;;;;;;13.33;5.40;;;18.10;95.20;;;;;;4920315;29;20440;-76
2021/06/14 07:53:03;;;;;;;11.80;4.80;;;18.20;94.20;;;;;;4920778;29;20455;-77
2021/06/14 07:55:28;;;;;;;14.90;5.00;;;18.30;93.20;;;;;;4920898;29;20419;-76
2021/06/14 07:57:55;;;;;;;13.40;5.67;;;18.30;92.50;;;;;;4920356;29;20428;-76
2021/06/14 08:00:20;;;;;;;17.43;5.80;;;18.40;91.80;;;;;;4920289;29;20270;-76
2021/06/14 08:02:47;;;;;;;7.73;3.60;;;18.40;91.90;;;;;;4919348;29;20515;-77
2021/06/14 08:05:13;;;;;;;19.20;5.00;;;18.50;86.90;;;;;;4919187;29;20522;-76
2021/06/14 08:07:39;;;;;;;21.43;5.10;;;18.60;87.50;;;;;;4919197;29;20448;-78
2021/06/14 08:10:08;;;;;;;11.83;5.17;;;18.70;88.30;;;;;;4919162;29;20189;-77
2021/06/14 08:12:38;;;;;;;12.50;5.47;;;18.80;89.00;;;;;;4919210;29;20491;-77
2021/06/14 08:15:04;;;;;;;8.90;4.50;;;18.80;88.60;;;;;;4918650;29;20487;-77
2021/06/14 08:17:30;;;;;;;10.60;4.83;;;18.90;88.30;;;;;;4918120;29;20531;-77
2021/06/14 08:22:35;;;;;;;12.83;4.70;;;19.10;87.60;;;;;;4935758;29;20200;-76
2021/06/14 08:25:04;;;;;;;10.13;4.80;;;19.10;89.10;;;;;;4917714;29;20195;-79
2021/06/14 08:27:32;;;;;;;14.23;5.43;;;19.20;89.00;;;;;;4932901;29;20477;-77
2021/06/14 08:29:57;;;;;;;14.30;5.07;;;19.40;86.40;;;;;;4918069;29;20442;-77
2021/06/14 08:32:23;;;;;;;11.00;5.30;;;19.50;86.80;;;;;;4924907;29;20478;-77
2021/06/14 08:34:49;;;;;;;13.83;5.80;;;19.60;86.40;;;;;;4937210;29;20171;-77
2021/06/14 08:37:14;;;;;;;13.27;4.90;;;19.60;87.50;;;;;;4937560;29;20553;-76
2021/06/14 08:39:40;;;;;;;10.10;5.10;;;19.70;87.60;;;;;;4937248;29;20635;-77
2021/06/14 08:42:06;;;;;;;10.00;4.93;;;19.80;87.00;;;;;;4920723;29;20231;-76
2021/06/14 08:44:32;;;;;;;13.97;4.57;;;19.80;89.00;;;;;;4918043;29;20187;-77
2021/06/14 08:46:58;;;;;;;7.03;4.47;;;19.90;88.50;;;;;;4917925;29;20434;-77
2021/06/14 08:49:26;;;;;;;15.97;6.00;;;20.00;87.80;;;;;;4917395;29;20427;-76
2021/06/14 08:51:51;;;;;;;12.30;5.47;;;20.10;87.30;;;;;;4918807;29;20533;-76
2021/06/14 08:54:19;;;;;;;9.83;5.13;;;20.20;86.20;;;;;;4919842;29;20519;-77
2021/06/14 08:56:44;;;;;;;12.80;3.93;;;20.30;85.50;;;;;;4919254;29;20183;-76
2021/06/14 08:59:11;;;;;;;10.70;5.10;;;20.30;84.90;;;;;;4919541;29;20419;-76
2021/06/14 09:01:36;;;;;;;11.57;5.77;;;20.30;85.30;;;;;;4919431;29;20211;-76
2021/06/14 09:04:02;;;;;;;9.83;4.90;;;20.40;85.00;;;;;;4917214;29;20668;-77
2021/06/14 09:06:27;;;;;;;10.50;4.70;;;20.40;85.40;;;;;;4923013;29;20658;-77
2021/06/14 09:09:00;;;;;;;7.27;4.50;;;20.50;84.10;;;;;;4934739;29;20733;-77
2021/06/14 09:11:27;;;;;;;13.57;4.57;;;20.50;83.10;;;;;;4919592;29;20236;-76
2021/06/14 09:13:52;;;;;;;8.07;4.40;;;20.50;83.30;;;;;;4917880;29;20834;-76
2021/06/14 09:16:18;;;;;;;7.10;4.23;;;20.60;83.50;;;;;;4934089;29;20415;-77
2021/06/14 09:18:45;;;;;;;11.93;4.60;;;20.60;83.10;;;;;;4916402;29;20671;-77
2021/06/14 09:21:16;;;;;;;9.80;5.10;;;20.60;83.40;;;;;;4934841;29;20969;-77
2021/06/14 09:23:49;;;;;;;9.37;4.63;;;20.70;83.40;;;;;;4934431;29;20420;-76
2021/06/14 09:26:35;;;;;;;11.30;5.00;;;20.80;83.30;;;;;;4917329;29;20510;-77
2021/06/14 09:29:04;;;;;;;11.10;4.70;;;20.90;82.40;;;;;;4917725;29;20522;-76
2021/06/14 09:31:46;;;;;;;9.93;4.90;;;20.90;81.60;;;;;;4917092;29;20840;-77
2021/06/14 09:34:14;;;;;;;11.50;4.80;;;21.00;82.30;;;;;;4916996;29;20434;-77
2021/06/14 09:36:41;;;;;;;13.20;4.97;;;21.10;84.00;;;;;;4934209;29;20495;-78
2021/06/14 09:39:12;;;;;;;9.53;4.73;;;21.20;82.60;;;;;;4916937;29;20471;-79
2021/06/14 09:41:40;;;;;;;8.27;4.80;;;21.30;82.40;;;;;;4916906;29;20502;-77
2021/06/14 09:44:06;;;;;;;9.07;4.70;;;21.40;82.90;;;;;;4934203;29;20446;-79
2021/06/14 09:46:33;;;;;;;9.70;4.37;;;21.50;80.40;;;;;;4916809;29;20420;-77
2021/06/14 09:49:01;;;;;;;10.17;5.10;;;21.50;81.20;;;;;;4916592;29;20180;-77
2021/06/14 09:51:28;;;;;;;8.60;4.73;;;21.60;81.50;;;;;;4916940;29;20443;-80
2021/06/14 09:53:55;;;;;;;15.00;4.77;;;21.70;83.10;;;;;;4917092;29;20466;-78
2021/06/14 09:56:25;;;;;;;16.37;5.70;;;21.80;82.00;;;;;;4916910;29;20408;-79
2021/06/14 09:58:54;;;;;;;17.53;5.20;;;21.90;82.00;;;;;;4916661;29;20436;-81
2021/06/14 10:01:29;;;;;;;12.70;5.20;;;21.90;80.80;;;;;;4917011;29;20669;-79
2021/06/14 10:03:57;;;;;;;10.63;5.43;;;21.90;81.50;;;;;;4916985;29;20451;-79
2021/06/14 10:06:27;;;;;;;14.40;5.43;;;21.80;82.20;;;;;;4916561;29;21045;-79
2021/06/14 10:08:52;;;;;;;16.80;5.90;;;21.80;81.40;;;;;;4916457;29;20416;-78
2021/06/14 10:11:18;;;;;;;12.67;5.20;;;21.80;80.90;;;;;;4916844;29;20479;-80
2021/06/14 10:13:48;;;;;;;12.80;5.43;;;21.80;80.20;;;;;;4916435;29;20211;-79
2021/06/14 10:16:16;;;;;;;10.20;5.30;;;21.90;80.40;;;;;;4916256;29;20275;-79
2021/06/14 10:18:45;;;;;;;8.30;4.63;;;22.00;80.80;;;;;;4916758;29;20894;-79
2021/06/14 10:21:34;;;;;;;11.43;5.27;;;22.00;81.90;;;;;;4917623;29;20490;-79
2021/06/14 10:24:07;;;;;;;9.57;5.60;;;22.20;82.50;;;;;;4916536;29;20833;-79
2021/06/14 10:26:36;;;;;;;14.90;5.33;;;22.20;80.20;;;;;;4916367;29;20423;-79
2021/06/14 10:29:03;;;;;;;9.20;4.87;;;22.40;80.10;;;;;;4916557;29;20433;-79
2021/06/14 10:31:29;;;;;;;12.80;5.77;;;22.40;79.30;;;;;;4917166;29;20432;-79
2021/06/14 10:33:56;;;;;;;13.33;4.37;;;22.50;80.00;;;;;;4916662;29;20443;-79
2021/06/14 10:36:24;;;;;;;9.53;4.57;;;22.60;80.90;;;;;;4916632;29;20513;-80
2021/06/14 10:38:51;;;;;;;12.93;5.60;;;22.60;79.80;;;;;;4916527;29;20458;-79
2021/06/14 10:41:19;;;;;;;10.03;4.57;;;22.60;81.00;;;;;;4916953;29;20443;-79
2021/06/14 10:43:45;;;;;;;12.97;5.50;;;22.70;81.90;;;;;;4916559;29;20511;-79
2021/06/14 10:46:14;;;;;;;7.03;4.20;;;22.80;80.10;;;;;;4915998;29;20432;-80
2021/06/14 10:48:41;;;;;;;9.60;4.97;;;23.00;79.70;;;;;;4916420;29;20908;-79
2021/06/14 10:51:16;;;;;;;12.03;5.10;;;23.10;80.10;;;;;;4916484;29;20531;-79
2021/06/14 10:53:42;;;;;;;12.67;5.20;;;23.20;79.80;;;;;;4916352;29;20466;-79
2021/06/14 10:56:13;;;;;;;9.60;4.60;;;23.20;77.70;;;;;;4916144;29;20799;-79
2021/06/14 10:58:42;;;;;;;8.20;4.17;;;23.30;80.40;;;;;;4916014;29;20431;-78
2021/06/14 11:01:15;;;;;;;13.63;4.47;;;23.40;77.80;;;;;;4916582;29;20440;-80
2021/06/14 11:03:48;;;;;;;8.33;4.30;;;23.50;77.70;;;;;;4916612;29;20460;-79
2021/06/14 11:06:25;;;;;;;12.93;5.50;;;23.60;79.60;;;;;;4916191;29;20575;-80
2021/06/14 11:09:01;;;;;;;8.00;4.20;;;23.70;78.90;;;;;;4916053;29;20419;-80
2021/06/14 11:11:27;;;;;;;7.40;4.03;;;23.90;81.60;;;;;;4916024;29;20486;-80
2021/06/14 11:13:53;;;;;;;11.03;4.90;;;24.00;80.40;;;;;;4933493;29;20502;-80
2021/06/14 11:16:19;;;;;;;9.13;4.53;;;24.10;81.00;;;;;;4916168;29;20412;-80
2021/06/14 11:18:47;;;;;;;8.53;5.00;;;24.10;79.80;;;;;;4933431;29;20255;-80
2021/06/14 11:21:18;;;;;;;9.53;4.20;;;24.20;81.60;;;;;;4916432;29;20443;-80
2021/06/14 11:23:48;;;;;;;10.20;4.50;;;24.20;82.00;;;;;;4916772;29;20436;-80
2021/06/14 11:26:29;;;;;;;12.00;5.40;;;24.30;81.30;;;;;;4916528;29;20435;-81
2021/06/14 11:28:55;;;;;;;10.87;4.43;;;24.30;81.30;;;;;;4916160;29;20966;-80
2021/06/14 11:31:24;;;;;;;9.80;5.13;;;24.30;80.90;;;;;;4916676;29;20443;-80
2021/06/14 11:33:54;;;;;;;9.10;5.00;;;24.30;80.90;;;;;;4933240;29;21025;-80
2021/06/14 11:36:21;;;;;;;11.53;4.30;;;24.30;82.10;;;;;;4916341;29;20500;-80
2021/06/14 11:38:48;;;;;;;8.87;4.00;;;24.30;81.30;;;;;;4915994;29;20497;-80
2021/06/14 11:41:27;;;;;;;10.60;4.60;;;24.40;83.10;;;;;;4916746;29;20646;-79
2021/06/14 11:44:19;;;;;;;7.70;4.60;;;24.50;82.50;;;;;;4919325;29;20486;-80
2021/06/14 11:46:46;;;;;;;8.30;4.70;;;24.70;83.90;;;;;;4919388;29;20423;-79
2021/06/14 11:49:12;;;;;;;9.60;4.77;;;24.80;82.60;;;;;;4919114;29;20511;-80
2021/06/14 11:51:38;;;;;;;8.60;4.27;;;24.90;81.90;;;;;;4919450;29;20526;-80
2021/06/14 11:54:06;;;;;;;6.37;4.03;;;25.00;80.90;;;;;;4919535;29;20195;-79
2021/06/14 11:56:35;;;;;;;13.83;5.07;;;25.10;81.40;;;;;;4919001;29;20428;-80
2021/06/14 11:59:01;;;;;;;12.23;3.90;;;25.20;83.10;;;;;;4919060;29;20936;-79
2021/06/14 12:01:28;;;;;;;12.37;4.10;;;25.30;82.10;;;;;;4936470;29;20956;-80
2021/06/14 12:03:59;;;;;;;11.90;4.50;;;25.30;79.00;;;;;;4918619;29;20454;-79
2021/06/14 12:06:26;;;;;;;7.10;4.73;;;25.30;79.90;;;;;;4918679;29;20510;-79
2021/06/14 12:08:51;;;;;;;7.43;3.83;;;25.40;84.20;;;;;;4918865;29;20432;-79
2021/06/14 12:11:23;;;;;;;8.87;4.70;;;25.40;80.00;;;;;;4918548;29;20471;-79
2021/06/14 12:13:48;;;;;;;13.00;4.70;;;25.40;82.20;;;;;;4918691;29;20255;-80
2021/06/14 12:16:14;;;;;;;12.30;4.70;;;25.50;83.10;;;;;;4918983;29;20407;-79
2021/06/14 12:18:40;;;;;;;9.23;5.00;;;25.50;81.40;;;;;;4919670;29;20172;-79
2021/06/14 12:21:08;;;;;;;9.10;4.83;;;25.70;79.80;;;;;;4918410;29;20432;-80
2021/06/14 12:23:36;;;;;;;8.03;4.33;;;25.70;77.20;;;;;;4918792;29;20184;-79
2021/06/14 12:26:12;;;;;;;12.03;4.77;;;25.80;77.80;;;;;;4918619;29;20456;-80
2021/06/14 12:28:39;;;;;;;7.67;3.90;;;25.90;77.40;;;;;;4918381;29;20428;-80
2021/06/14 12:31:08;;;;;;;7.47;4.23;;;26.10;76.40;;;;;;4918171;29;20531;-79
2021/06/14 12:33:36;;;;;;;6.77;3.90;;;26.20;78.00;;;;;;4918313;29;20491;-79
2021/06/14 12:36:03;;;;;;;7.50;4.37;;;26.40;80.70;;;;;;4918710;29;20789;-79
2021/06/14 12:38:29;;;;;;;7.80;3.83;;;26.50;78.60;;;;;;4918435;29;20438;-80
2021/06/14 12:40:56;;;;;;;7.33;4.00;;;26.60;80.50;;;;;;4918310;29;21026;-79
2021/06/14 12:43:22;;;;;;;11.83;4.30;;;26.70;79.80;;;;;;4918076;29;20475;-79
2021/06/14 12:45:48;;;;;;;9.80;4.53;;;26.80;76.80;;;;;;4918519;29;20840;-79
2021/06/14 12:48:17;;;;;;;9.57;4.00;;;26.90;76.60;;;;;;4918203;29;20211;-79
2021/06/14 12:50:48;;;;;;;9.50;5.03;;;27.00;75.00;;;;;;4918004;29;20204;-79
2021/06/14 12:53:23;;;;;;;7.83;3.67;;;26.90;79.40;;;;;;4917244;29;20468;-80
2021/06/14 12:55:51;;;;;;;10.73;4.43;;;26.80;77.20;;;;;;4918134;29;20502;-80
2021/06/14 12:58:23;;;;;;;15.07;3.87;;;26.80;75.90;;;;;;4918199;29;20422;-79
2021/06/14 13:01:01;;;;;;;6.20;4.10;;;26.70;79.80;;;;;;4917940;29;20439;-80
2021/06/14 13:03:33;;;;;;;8.23;3.70;;;26.80;78.10;;;;;;4935066;29;20537;-79
2021/06/14 13:05:59;;;;;;;7.90;4.23;;;27.00;79.00;;;;;;4919569;29;20555;-79
2021/06/14 13:08:39;;;;;;;11.53;4.13;;;27.00;75.60;;;;;;4919285;29;20436;-79
2021/06/14 13:11:06;;;;;;;7.53;3.80;;;27.10;77.60;;;;;;4918059;29;20542;-79
2021/06/14 13:13:36;;;;;;;8.00;4.60;;;27.20;75.30;;;;;;4917794;29;20511;-79
2021/06/14 13:16:12;;;;;;;6.03;3.80;;;27.30;74.40;;;;;;4917806;29;20415;-79
2021/06/14 13:18:41;;;;;;;8.60;4.60;;;27.40;78.10;;;;;;4919139;29;20935;-79
2021/06/14 13:21:15;;;;;;;6.77;3.93;;;27.60;78.30;;;;;;4918920;29;20499;-79
2021/06/14 13:23:49;;;;;;;9.00;3.83;;;27.70;81.60;;;;;;4919391;29;20423;-78
2021/06/14 13:26:16;;;;;;;11.67;3.90;;;27.90;79.20;;;;;;4918728;29;20435;-78
2021/06/14 13:28:43;;;;;;;12.43;3.87;;;28.00;77.20;;;;;;4936199;29;20423;-79
2021/06/14 13:31:23;;;;;;;7.10;4.10;;;28.10;76.50;;;;;;4935833;29;20439;-79